Time;durP1;ratioP1;P1;durP2;ratioP2;P2;SDS_P1;SDS_P2;PMS_P1;PMS_P2;Temp;Humidity;BMP_temperature;BMP_pressure;BME280_temperature;BME280_humidity;BME280_pressure;Samples;Min_cycle;Max_cycle;Signal;HPM_P1;HPM_P2
2023/07/12 00:00:23;;;;;;;1.40;1.30;;;23.70;34.00;;;;;;10420951;28;20237;-78
2023/07/12 00:05:30;;;;;;;5.07;1.60;;;23.60;35.10;;;;;;10420333;28;20285;-77
2023/07/12 00:10:35;;;;;;;2.30;1.40;;;23.60;36.30;;;;;;10420739;28;20218;-77
2023/07/12 00:15:40;;;;;;;1.80;1.20;;;23.50;35.20;;;;;;10421046;28;20230;-78
2023/07/12 00:20:45;;;;;;;2.70;1.30;;;23.50;35.00;;;;;;10420622;28;20225;-78
2023/07/12 00:25:50;;;;;;;2.67;1.37;;;23.40;36.30;;;;;;10543115;22;20243;-72
2023/07/12 00:30:56;;;;;;;3.30;1.40;;;23.50;36.40;;;;;;10336912;28;20710;-70
2023/07/12 00:36:01;;;;;;;3.17;1.40;;;23.60;35.90;;;;;;10346720;28;20229;-70
2023/07/12 00:41:17;;;;;;;1.47;1.17;;;23.60;36.30;;;;;;10344027;28;20986;-70
2023/07/12 00:46:27;;;;;;;1.83;1.10;;;23.60;38.00;;;;;;10341061;28;20226;-71
2023/07/12 00:51:41;;;;;;;2.73;1.40;;;23.60;37.30;;;;;;10341359;28;20230;-70
2023/07/12 00:56:45;;;;;;;1.40;1.10;;;23.60;38.30;;;;;;10345170;28;20656;-70
2023/07/12 01:01:52;;;;;;;2.17;1.40;;;23.40;36.10;;;;;;10339170;28;20226;-71
2023/07/12 01:06:56;;;;;;;1.60;1.50;;;23.30;37.40;;;;;;10337237;28;20254;-70
2023/07/12 01:12:00;;;;;;;3.33;1.70;;;23.30;37.70;;;;;;10345284;28;20226;-70
2023/07/12 01:17:06;;;;;;;2.00;1.27;;;23.20;37.20;;;;;;10339318;28;20222;-70
2023/07/12 01:22:11;;;;;;;1.70;1.47;;;23.10;39.10;;;;;;10336247;28;20254;-70
2023/07/12 01:27:18;;;;;;;3.17;1.33;;;23.00;38.60;;;;;;10342049;28;20806;-70
2023/07/12 01:32:21;;;;;;;2.90;1.40;;;23.00;39.10;;;;;;10337454;28;20238;-70
2023/07/12 01:37:26;;;;;;;1.60;1.50;;;23.10;38.30;;;;;;10337575;28;20231;-70
2023/07/12 01:42:29;;;;;;;2.37;1.53;;;23.20;39.00;;;;;;10338103;28;20218;-70
2023/07/12 01:47:33;;;;;;;2.83;1.50;;;23.40;37.60;;;;;;10335154;28;20222;-70
2023/07/12 01:52:38;;;;;;;1.57;1.37;;;23.50;37.70;;;;;;10342353;28;20232;-70
2023/07/12 01:57:41;;;;;;;3.07;1.50;;;23.40;38.70;;;;;;10338167;28;20648;-70
2023/07/12 02:02:44;;;;;;;4.77;1.37;;;23.40;38.00;;;;;;10334853;28;20226;-70
2023/07/12 02:07:52;;;;;;;2.90;1.87;;;23.30;38.10;;;;;;10336752;28;20609;-70
2023/07/12 02:12:55;;;;;;;1.77;1.33;;;23.20;39.30;;;;;;10338163;28;20269;-70
2023/07/12 02:17:58;;;;;;;3.43;1.63;;;23.10;38.80;;;;;;10338805;28;20229;-70
2023/07/12 02:23:03;;;;;;;1.77;1.50;;;23.20;39.30;;;;;;10341518;28;20227;-70
2023/07/12 02:28:06;;;;;;;2.50;1.60;;;23.30;39.40;;;;;;10335108;28;20602;-70
2023/07/12 02:33:09;;;;;;;2.70;1.57;;;23.40;38.80;;;;;;10340598;28;20244;-70
2023/07/12 02:38:14;;;;;;;5.13;2.20;;;23.50;38.50;;;;;;10345834;28;20728;-70
2023/07/12 02:43:17;;;;;;;1.53;1.40;;;23.50;39.60;;;;;;10344223;28;20309;-70
2023/07/12 02:48:20;;;;;;;2.13;1.63;;;23.50;38.60;;;;;;10343816;28;20254;-70
2023/07/12 02:53:25;;;;;;;3.83;1.50;;;23.40;38.40;;;;;;10345295;28;20230;-70
2023/07/12 02:58:28;;;;;;;2.13;1.70;;;23.40;39.50;;;;;;10342919;28;20230;-70
2023/07/12 03:03:31;;;;;;;6.03;2.07;;;23.30;38.90;;;;;;10345897;28;20226;-69
2023/07/12 03:08:36;;;;;;;2.80;1.90;;;23.10;39.20;;;;;;10342461;28;20230;-70
2023/07/12 03:13:39;;;;;;;2.10;1.57;;;23.00;40.00;;;;;;10345679;28;20229;-70
2023/07/12 03:18:42;;;;;;;3.93;2.23;;;22.90;39.10;;;;;;10343516;28;20288;-70
2023/07/12 03:23:47;;;;;;;3.40;2.07;;;22.90;39.60;;;;;;10343811;28;20313;-70
2023/07/12 03:28:50;;;;;;;3.17;2.50;;;22.90;40.60;;;;;;10337322;28;20223;-68
2023/07/12 03:33:54;;;;;;;3.83;2.03;;;22.80;39.80;;;;;;10343223;28;20360;-68
2023/07/12 03:38:59;;;;;;;3.97;2.30;;;22.80;40.00;;;;;;10342531;28;20230;-68
2023/07/12 03:44:02;;;;;;;2.80;2.03;;;22.80;41.50;;;;;;10338541;28;20235;-68
2023/07/12 03:49:05;;;;;;;4.93;2.37;;;22.80;40.20;;;;;;10342639;28;20226;-68
2023/07/12 03:54:10;;;;;;;4.13;2.20;;;22.80;40.40;;;;;;10344669;28;20230;-69
2023/07/12 03:59:13;;;;;;;3.80;2.40;;;22.80;41.30;;;;;;10343112;28;20228;-68
2023/07/12 04:04:16;;;;;;;5.57;2.70;;;22.80;40.50;;;;;;10342532;28;20226;-69
2023/07/12 04:09:21;;;;;;;5.17;2.70;;;22.70;40.60;;;;;;10339646;28;20229;-68
2023/07/12 04:14:24;;;;;;;3.97;2.37;;;22.70;41.70;;;;;;10345275;28;20330;-68
2023/07/12 04:19:27;;;;;;;3.13;2.40;;;22.70;41.10;;;;;;10345074;28;20234;-68
2023/07/12 04:24:32;;;;;;;3.70;1.97;;;22.70;41.30;;;;;;10335008;28;20230;-68
2023/07/12 04:29:35;;;;;;;4.40;2.80;;;22.70;42.40;;;;;;10344942;28;20230;-68
2023/07/12 04:34:39;;;;;;;2.57;2.37;;;22.60;41.80;;;;;;10337923;28;20243;-68
2023/07/12 04:39:44;;;;;;;2.77;2.57;;;22.60;42.30;;;;;;10338709;28;20242;-68
2023/07/12 04:44:47;;;;;;;4.43;2.73;;;22.50;43.10;;;;;;10341920;28;20249;-70
2023/07/12 04:49:50;;;;;;;7.00;2.87;;;22.40;42.40;;;;;;10336597;28;20234;-71
2023/07/12 04:54:57;;;;;;;3.77;2.70;;;22.30;42.90;;;;;;10343909;28;20726;-72
2023/07/12 05:00:00;;;;;;;3.27;2.70;;;22.30;45.10;;;;;;10339507;28;20234;-68
2023/07/12 05:05:04;;;;;;;6.97;3.00;;;22.30;43.30;;;;;;10337864;28;20711;-68
2023/07/12 05:10:10;;;;;;;6.10;3.00;;;22.30;43.70;;;;;;10344206;28;20642;-68
2023/07/12 05:15:13;;;;;;;4.10;2.60;;;22.40;45.40;;;;;;10339844;28;20768;-69
2023/07/12 05:20:18;;;;;;;4.53;2.50;;;22.40;43.90;;;;;;10338395;28;20317;-68
2023/07/12 05:25:23;;;;;;;4.70;3.13;;;22.50;44.30;;;;;;10334924;28;20290;-70
2023/07/12 05:30:26;;;;;;;3.43;3.10;;;22.60;45.40;;;;;;10339423;28;20536;-72
2023/07/12 05:35:29;;;;;;;3.97;2.80;;;22.60;44.40;;;;;;10335936;28;20318;-72
2023/07/12 05:40:35;;;;;;;5.63;3.40;;;22.80;44.60;;;;;;10337690;28;20665;-72
2023/07/12 05:45:38;;;;;;;7.07;3.00;;;22.90;45.90;;;;;;10339350;28;20230;-72
2023/07/12 05:50:41;;;;;;;5.37;3.10;;;23.00;45.00;;;;;;10333451;28;20892;-72
2023/07/12 05:55:46;;;;;;;4.40;3.13;;;23.10;45.10;;;;;;10328739;28;20237;-72
2023/07/12 06:00:55;;;;;;;4.63;2.77;;;23.10;45.90;;;;;;10328670;28;20813;-72
2023/07/12 06:05:58;;;;;;;5.30;3.10;;;23.20;44.90;;;;;;10334620;28;20971;-73
2023/07/12 06:11:03;;;;;;;5.33;3.07;;;23.20;45.20;;;;;;10335907;28;20227;-70
2023/07/12 06:16:07;;;;;;;3.13;2.60;;;23.30;46.90;;;;;;10341744;28;20325;-70
2023/07/12 06:21:10;;;;;;;4.53;2.97;;;23.40;45.30;;;;;;10332397;28;20410;-70
2023/07/12 06:26:15;;;;;;;3.80;3.07;;;23.50;45.20;;;;;;10338714;28;20750;-72
2023/07/12 06:31:18;;;;;;;4.70;2.83;;;23.50;46.00;;;;;;10340954;28;20230;-71
2023/07/12 06:36:21;;;;;;;4.17;2.93;;;23.60;45.30;;;;;;10340840;28;20245;-72
2023/07/12 06:41:26;;;;;;;4.30;2.80;;;23.70;45.20;;;;;;10338678;28;20234;-72
2023/07/12 06:46:29;;;;;;;4.63;3.30;;;23.70;45.70;;;;;;10343467;28;20240;-71
2023/07/12 06:51:33;;;;;;;3.60;2.77;;;23.80;45.10;;;;;;10346049;28;20230;-72
2023/07/12 06:56:37;;;;;;;4.67;2.90;;;23.90;45.00;;;;;;10352049;28;20250;-72
2023/07/12 07:01:40;;;;;;;4.63;2.60;;;24.00;45.70;;;;;;10344623;28;20260;-72
2023/07/12 07:06:44;;;;;;;3.27;2.50;;;24.10;44.90;;;;;;10344395;28;20237;-72
2023/07/12 07:11:48;;;;;;;5.60;3.07;;;24.20;44.60;;;;;;10346136;28;20256;-72
2023/07/12 07:16:51;;;;;;;3.83;2.47;;;24.20;44.30;;;;;;10341975;28;20225;-70
2023/07/12 07:21:55;;;;;;;4.23;2.90;;;24.30;44.00;;;;;;10343724;28;20239;-70
2023/07/12 07:26:59;;;;;;;4.20;2.83;;;24.30;44.10;;;;;;10338672;28;20226;-70
2023/07/12 07:32:02;;;;;;;4.77;3.50;;;24.20;44.50;;;;;;10336868;28;20309;-67
2023/07/12 07:37:10;;;;;;;4.00;3.10;;;24.30;44.10;;;;;;10347438;28;20233;-66
2023/07/12 07:42:14;;;;;;;4.53;3.20;;;24.30;44.40;;;;;;10342002;28;20227;-69
2023/07/12 07:47:18;;;;;;;4.30;3.10;;;24.40;44.60;;;;;;10343750;28;20223;-67
2023/07/12 07:52:22;;;;;;;3.07;2.87;;;24.40;44.30;;;;;;10345151;28;20729;-72
2023/07/12 07:57:26;;;;;;;3.33;3.03;;;24.30;44.30;;;;;;10343444;28;20234;-67
2023/07/12 08:02:29;;;;;;;7.97;3.50;;;24.40;44.60;;;;;;10341793;28;20235;-73
2023/07/12 08:07:39;;;;;;;4.00;3.07;;;24.50;44.30;;;;;;10345537;28;20231;-73
2023/07/12 08:12:43;;;;;;;4.50;3.40;;;24.60;44.90;;;;;;10345496;28;20230;-72
2023/07/12 08:17:47;;;;;;;4.20;3.20;;;24.70;44.60;;;;;;10340100;28;20234;-72
2023/07/12 08:22:50;;;;;;;3.37;3.07;;;24.80;44.40;;;;;;10342128;28;20922;-72
2023/07/12 08:27:55;;;;;;;4.30;3.30;;;25.00;44.20;;;;;;10345852;28;20267;-70
2023/07/12 08:32:58;;;;;;;5.60;2.90;;;25.20;44.40;;;;;;10338630;28;20227;-70
2023/07/12 08:38:01;;;;;;;4.67;3.10;;;25.40;43.50;;;;;;10339931;28;20782;-67
2023/07/12 08:43:12;;;;;;;4.70;2.93;;;25.60;43.40;;;;;;10336107;28;20238;-67
2023/07/12 08:48:19;;;;;;;3.07;2.70;;;25.70;43.10;;;;;;10343329;28;20670;-66
2023/07/12 08:53:31;;;;;;;3.73;3.00;;;25.80;43.20;;;;;;10585819;27;20563;-67
2023/07/12 08:58:38;;;;;;;4.67;2.70;;;25.90;41.80;;;;;;10572533;27;20313;-67
2023/07/12 09:03:41;;;;;;;3.60;2.87;;;26.00;42.00;;;;;;10565858;27;20223;-67
2023/07/12 09:08:50;;;;;;;4.30;3.10;;;26.10;41.90;;;;;;10568039;27;20233;-72
2023/07/12 09:13:57;;;;;;;3.83;2.80;;;26.20;42.10;;;;;;10567868;27;20230;-72
2023/07/12 09:19:12;;;;;;;4.30;2.90;;;26.40;41.80;;;;;;10568398;27;20314;-73
2023/07/12 09:24:22;;;;;;;4.57;2.90;;;26.70;42.00;;;;;;10567914;27;20245;-72
2023/07/12 09:29:26;;;;;;;3.77;2.83;;;26.90;41.20;;;;;;10563030;27;20248;-72
2023/07/12 09:34:35;;;;;;;5.77;3.10;;;27.10;41.30;;;;;;10562040;27;20227;-72
2023/07/12 09:39:39;;;;;;;3.63;2.90;;;27.30;41.00;;;;;;10572071;27;20223;-72
2023/07/12 09:44:44;;;;;;;4.47;3.17;;;27.60;40.60;;;;;;10568315;27;20738;-72
2023/07/12 09:49:56;;;;;;;4.07;3.40;;;27.80;41.00;;;;;;10565101;27;20235;-72
2023/07/12 09:55:05;;;;;;;3.93;3.53;;;28.10;39.60;;;;;;10565252;27;20227;-72
2023/07/12 10:00:15;;;;;;;3.77;3.47;;;28.20;38.80;;;;;;10561978;27;20227;-70
2023/07/12 10:05:20;;;;;;;4.80;3.30;;;28.40;38.20;;;;;;10540198;28;20224;-70
2023/07/12 10:10:32;;;;;;;5.13;3.53;;;28.50;38.50;;;;;;10539040;27;20322;-71
2023/07/12 10:15:40;;;;;;;4.13;3.50;;;28.60;38.00;;;;;;10536061;28;20223;-72
2023/07/12 10:20:44;;;;;;;3.87;3.47;;;28.70;38.20;;;;;;10531295;27;20314;-72
2023/07/12 10:25:51;;;;;;;4.10;3.80;;;28.80;38.10;;;;;;10537590;27;20949;-72
2023/07/12 10:30:57;;;;;;;3.93;3.43;;;28.90;37.00;;;;;;10533594;28;20228;-72
2023/07/12 10:36:05;;;;;;;3.60;3.30;;;29.00;36.70;;;;;;10533350;27;20233;-72
2023/07/12 10:41:14;;;;;;;4.70;3.73;;;29.00;37.70;;;;;;10535508;28;20311;-72
2023/07/12 10:46:29;;;;;;;4.50;3.97;;;29.20;35.70;;;;;;10533307;27;20222;-72
2023/07/12 10:51:37;;;;;;;4.00;3.50;;;29.40;35.60;;;;;;10530610;27;20231;-72
2023/07/12 10:56:52;;;;;;;4.03;3.73;;;29.50;34.70;;;;;;10531323;27;20223;-73
2023/07/12 11:01:56;;;;;;;4.07;3.60;;;29.50;34.50;;;;;;10530948;27;20314;-73
2023/07/12 11:07:01;;;;;;;5.73;3.67;;;29.60;34.70;;;;;;10531516;27;20223;-73
2023/07/12 11:12:08;;;;;;;4.10;3.70;;;29.70;34.40;;;;;;10528766;28;20228;-67
2023/07/12 11:17:15;;;;;;;4.73;3.73;;;29.80;34.60;;;;;;10530025;28;20258;-67
2023/07/12 11:22:21;;;;;;;4.83;3.50;;;29.90;34.80;;;;;;10533044;27;20322;-67
2023/07/12 11:27:39;;;;;;;5.00;3.57;;;30.00;33.70;;;;;;10535737;27;20578;-67
2023/07/12 11:32:46;;;;;;;3.83;3.47;;;30.10;33.50;;;;;;10530057;27;20253;-67
2023/07/12 11:37:51;;;;;;;3.90;3.50;;;30.30;34.30;;;;;;10533322;28;20308;-67
2023/07/12 11:42:55;;;;;;;3.73;3.30;;;30.40;33.40;;;;;;10531727;28;20227;-74
2023/07/12 11:47:59;;;;;;;5.90;3.43;;;30.60;32.90;;;;;;10524568;27;20379;-73
2023/07/12 11:53:03;;;;;;;4.53;3.70;;;30.80;33.30;;;;;;10532466;27;20223;-73
2023/07/12 11:58:15;;;;;;;3.73;3.43;;;31.00;32.70;;;;;;10533357;27;20233;-73
2023/07/12 12:03:19;;;;;;;3.97;3.67;;;31.10;32.30;;;;;;10524418;28;20233;-73
2023/07/12 12:08:26;;;;;;;4.30;4.00;;;31.20;32.30;;;;;;10528613;27;20228;-73
2023/07/12 12:13:33;;;;;;;4.40;4.00;;;31.30;31.20;;;;;;10524694;27;20318;-74
2023/07/12 12:18:37;;;;;;;4.20;3.90;;;31.20;31.10;;;;;;10527080;27;20341;-74
2023/07/12 12:23:43;;;;;;;5.60;4.27;;;31.10;32.00;;;;;;10532295;27;20231;-67
2023/07/12 12:28:53;;;;;;;4.77;4.27;;;31.00;31.10;;;;;;10528909;27;20920;-67
2023/07/12 12:34:05;;;;;;;4.20;3.83;;;31.00;31.00;;;;;;10525815;27;20316;-67
2023/07/12 12:39:20;;;;;;;4.57;4.17;;;31.00;31.30;;;;;;10528216;27;20601;-67
2023/07/12 12:44:28;;;;;;;4.33;3.93;;;31.00;30.90;;;;;;10534968;27;20237;-70
2023/07/12 12:49:33;;;;;;;4.50;4.10;;;30.90;30.90;;;;;;10524942;27;20231;-70
2023/07/12 12:54:39;;;;;;;5.73;4.70;;;30.90;30.90;;;;;;10528688;27;20223;-70
2023/07/12 12:59:48;;;;;;;5.13;4.63;;;30.80;31.30;;;;;;10528571;28;20239;-70
2023/07/12 13:05:12;;;;;;;5.00;4.60;;;30.70;30.70;;;;;;10535256;27;20222;-67
2023/07/12 13:10:33;;;;;;;4.33;3.93;;;30.60;31.30;;;;;;10527800;28;20234;-67
2023/07/12 13:15:40;;;;;;;6.53;4.20;;;30.60;31.90;;;;;;10526568;27;20338;-67
2023/07/12 13:20:47;;;;;;;4.63;4.20;;;30.50;31.90;;;;;;10526146;27;20228;-66
2023/07/12 13:25:52;;;;;;;4.77;4.20;;;30.40;31.80;;;;;;10528940;27;20223;-67
2023/07/12 13:30:57;;;;;;;5.10;4.60;;;30.40;32.20;;;;;;10525109;27;20235;-67
2023/07/12 13:36:00;;;;;;;5.50;5.00;;;30.30;32.40;;;;;;10531775;27;20237;-67
2023/07/12 13:41:06;;;;;;;5.57;5.07;;;30.10;32.40;;;;;;10500046;28;20240;-67
2023/07/12 13:46:15;;;;;;;5.30;4.90;;;29.80;33.10;;;;;;10498842;28;20223;-71
2023/07/12 13:51:21;;;;;;;6.07;5.10;;;29.30;34.40;;;;;;10496418;28;20321;-71
2023/07/12 13:56:24;;;;;;;5.00;4.50;;;28.90;35.00;;;;;;10500694;28;20373;-71
2023/07/12 14:01:32;;;;;;;4.50;4.10;;;28.30;34.40;;;;;;10497050;28;20313;-71
2023/07/12 14:06:38;;;;;;;4.77;4.27;;;27.80;35.00;;;;;;10495597;28;20223;-69
2023/07/12 14:12:01;;;;;;;4.30;3.57;;;27.20;35.00;;;;;;10493295;28;20933;-70
2023/07/12 14:17:11;;;;;;;3.57;3.27;;;26.70;35.60;;;;;;10533457;27;20858;-70
2023/07/12 14:22:15;;;;;;;4.13;3.80;;;26.30;36.30;;;;;;10536830;28;20234;-70
2023/07/12 14:27:20;;;;;;;4.30;3.90;;;26.00;36.40;;;;;;10534323;27;20284;-72
2023/07/12 14:32:27;;;;;;;3.83;3.47;;;25.60;36.90;;;;;;10526754;28;20237;-72
2023/07/12 14:37:33;;;;;;;3.70;3.13;;;25.40;37.90;;;;;;10532716;27;20288;-72
2023/07/12 14:42:36;;;;;;;4.23;3.47;;;25.20;37.70;;;;;;10533913;27;20238;-72
2023/07/12 14:47:41;;;;;;;4.27;3.80;;;25.00;38.10;;;;;;10535145;27;20309;-73
2023/07/12 14:52:46;;;;;;;4.10;3.63;;;25.00;39.00;;;;;;10533844;27;20245;-72
2023/07/12 14:57:49;;;;;;;5.57;3.70;;;24.90;38.80;;;;;;10527934;28;20239;-72
2023/07/12 15:02:59;;;;;;;4.03;3.63;;;24.80;38.80;;;;;;10530865;27;20215;-72
2023/07/12 15:08:03;;;;;;;3.87;3.50;;;24.60;40.00;;;;;;10527748;27;20219;-73
2023/07/12 15:13:09;;;;;;;4.20;3.80;;;24.50;39.60;;;;;;10533380;27;20786;-72
2023/07/12 15:18:18;;;;;;;3.10;2.90;;;24.30;40.80;;;;;;10529797;27;20729;-72
2023/07/12 15:23:24;;;;;;;3.20;2.90;;;24.10;40.40;;;;;;10526790;27;20231;-73
2023/07/12 15:28:29;;;;;;;2.70;2.50;;;24.00;40.00;;;;;;10530820;27;20315;-74
2023/07/12 15:33:33;;;;;;;2.60;2.40;;;23.80;39.80;;;;;;10540335;27;20702;-70
2023/07/12 15:38:37;;;;;;;3.07;2.80;;;23.70;40.50;;;;;;10527021;28;20308;-69
2023/07/12 15:43:43;;;;;;;3.00;2.70;;;23.70;40.40;;;;;;10531930;28;20234;-69
2023/07/12 15:48:47;;;;;;;3.40;3.10;;;23.80;41.40;;;;;;10524506;28;20320;-72
2023/07/12 15:53:54;;;;;;;3.13;2.80;;;24.00;41.80;;;;;;10526331;28;20234;-70
2023/07/12 15:58:58;;;;;;;3.33;2.77;;;24.20;42.00;;;;;;10531794;27;21049;-70
2023/07/12 16:04:03;;;;;;;2.87;2.67;;;24.30;40.30;;;;;;10524488;28;20223;-70
2023/07/12 16:09:06;;;;;;;2.90;2.60;;;24.40;40.40;;;;;;10521955;27;20306;-70
2023/07/12 16:14:13;;;;;;;2.97;2.70;;;24.40;40.40;;;;;;10526140;27;20231;-70
2023/07/12 16:19:18;;;;;;;3.03;2.80;;;24.50;40.50;;;;;;10524557;27;20259;-70
2023/07/12 16:24:21;;;;;;;3.70;3.10;;;24.40;40.90;;;;;;10526391;28;20234;-70
2023/07/12 16:29:25;;;;;;;3.10;2.80;;;24.40;40.40;;;;;;10528798;28;20259;-70
2023/07/12 16:34:30;;;;;;;6.03;3.47;;;24.50;40.50;;;;;;10528026;27;20234;-73
2023/07/12 16:39:33;;;;;;;4.07;3.27;;;24.50;40.90;;;;;;10529800;28;20228;-72
2023/07/12 16:44:36;;;;;;;4.17;2.90;;;24.50;40.50;;;;;;10525731;27;20332;-72
2023/07/12 16:49:41;;;;;;;6.20;3.40;;;24.50;41.20;;;;;;10526422;27;20738;-73
2023/07/12 16:54:44;;;;;;;3.47;3.17;;;24.50;41.20;;;;;;10527627;27;20235;-73
2023/07/12 16:59:48;;;;;;;3.23;2.93;;;24.30;40.90;;;;;;10529526;28;20235;-73
2023/07/12 17:04:56;;;;;;;3.37;3.07;;;24.30;41.50;;;;;;10527994;28;20227;-73
2023/07/12 17:10:00;;;;;;;4.30;3.50;;;24.20;42.40;;;;;;10529198;27;20239;-73
2023/07/12 17:15:03;;;;;;;4.73;3.57;;;24.10;41.80;;;;;;10537511;27;20326;-70
2023/07/12 17:20:09;;;;;;;4.10;3.40;;;24.10;42.10;;;;;;10539475;28;20230;-70
2023/07/12 17:25:13;;;;;;;3.90;3.50;;;24.10;43.10;;;;;;10527393;27;20220;-70
2023/07/12 17:30:16;;;;;;;7.93;3.50;;;24.20;42.40;;;;;;10537892;28;20223;-70
2023/07/12 17:35:20;;;;;;;3.90;3.57;;;24.30;42.50;;;;;;10532868;27;20249;-73
2023/07/12 17:40:24;;;;;;;4.03;3.70;;;24.50;43.30;;;;;;10532534;27;20220;-73
2023/07/12 17:45:27;;;;;;;4.00;3.43;;;24.60;42.60;;;;;;10533646;27;20254;-73
2023/07/12 17:50:33;;;;;;;4.50;3.77;;;24.80;42.30;;;;;;10531919;27;20228;-73
2023/07/12 17:55:37;;;;;;;6.10;4.33;;;24.90;42.70;;;;;;10528369;28;20222;-73
2023/07/12 18:00:41;;;;;;;5.00;4.60;;;24.90;42.00;;;;;;10532397;27;20703;-73
2023/07/12 18:05:46;;;;;;;4.63;4.20;;;24.90;41.90;;;;;;10537577;27;20229;-73
2023/07/12 18:10:51;;;;;;;4.17;3.87;;;24.90;42.50;;;;;;10536965;27;20235;-73
2023/07/12 18:15:55;;;;;;;5.30;3.80;;;24.90;41.80;;;;;;10531625;27;20234;-73
2023/07/12 18:21:00;;;;;;;5.00;4.60;;;24.90;41.60;;;;;;10538082;27;20380;-73
2023/07/12 18:26:03;;;;;;;5.70;4.40;;;25.00;42.10;;;;;;10536631;28;20385;-72
2023/07/12 18:31:13;;;;;;;5.27;4.20;;;25.00;41.50;;;;;;10527783;28;20224;-72
2023/07/12 18:36:20;;;;;;;4.33;3.80;;;25.10;42.60;;;;;;10530635;27;20630;-73
2023/07/12 18:41:25;;;;;;;4.13;3.73;;;25.10;41.90;;;;;;10528062;28;20737;-73
2023/07/12 18:46:28;;;;;;;4.17;3.87;;;25.10;41.20;;;;;;10534181;28;20790;-73
2023/07/12 18:51:33;;;;;;;4.70;4.30;;;25.10;41.00;;;;;;10533597;27;20627;-73
2023/07/12 18:56:36;;;;;;;4.80;4.40;;;25.20;41.40;;;;;;10533814;27;20227;-72
2023/07/12 19:01:39;;;;;;;5.20;4.13;;;25.20;41.00;;;;;;10540269;27;20226;-73
2023/07/12 19:06:44;;;;;;;4.63;4.33;;;25.20;41.10;;;;;;10526502;27;21080;-72
2023/07/12 19:11:49;;;;;;;4.77;4.27;;;25.20;41.60;;;;;;10529046;27;20228;-72
2023/07/12 19:16:52;;;;;;;5.50;4.63;;;25.20;41.40;;;;;;10530129;27;20288;-73
2023/07/12 19:21:57;;;;;;;4.70;4.30;;;25.20;41.30;;;;;;10519433;27;20243;-73
2023/07/12 19:27:00;;;;;;;5.40;4.83;;;25.10;41.90;;;;;;10525186;27;20236;-73
2023/07/12 19:32:19;;;;;;;6.53;5.27;;;25.10;41.50;;;;;;10527343;28;20222;-73
2023/07/12 19:37:24;;;;;;;7.40;5.07;;;25.10;41.90;;;;;;10522099;28;20235;-73
2023/07/12 19:42:28;;;;;;;5.47;4.30;;;25.10;42.00;;;;;;10525157;27;20311;-72
2023/07/12 19:47:31;;;;;;;7.03;5.07;;;25.00;41.30;;;;;;10527915;27;20243;-72
2023/07/12 19:52:36;;;;;;;4.73;4.30;;;24.90;41.80;;;;;;10526877;27;20297;-73
2023/07/12 19:57:39;;;;;;;5.27;4.77;;;24.90;42.40;;;;;;10524848;27;20310;-73
2023/07/12 20:02:43;;;;;;;5.40;4.90;;;24.90;41.90;;;;;;10523171;27;20243;-74
2023/07/12 20:07:48;;;;;;;5.77;5.13;;;24.90;42.10;;;;;;10529948;27;20223;-74
2023/07/12 20:12:51;;;;;;;5.90;5.40;;;24.70;42.70;;;;;;10524007;28;20238;-74
2023/07/12 20:17:59;;;;;;;6.23;5.63;;;24.50;42.70;;;;;;10526994;27;20228;-74
2023/07/12 20:23:04;;;;;;;6.57;5.97;;;24.40;43.00;;;;;;10522792;27;20676;-73
2023/07/12 20:28:07;;;;;;;5.63;5.13;;;24.30;43.90;;;;;;10525585;27;20246;-74
2023/07/12 20:33:11;;;;;;;6.03;5.43;;;24.20;43.40;;;;;;10527623;27;20245;-75
2023/07/12 20:38:15;;;;;;;5.90;5.33;;;24.10;43.60;;;;;;10521294;28;20269;-74
2023/07/12 20:43:19;;;;;;;6.10;5.50;;;24.10;44.30;;;;;;10522769;28;20222;-74
2023/07/12 20:48:22;;;;;;;6.20;5.60;;;24.20;44.30;;;;;;10525709;28;20662;-74
2023/07/12 20:53:27;;;;;;;6.60;5.90;;;24.20;44.10;;;;;;10525650;27;20262;-75
2023/07/12 20:58:30;;;;;;;6.93;6.20;;;24.30;44.80;;;;;;10520985;28;20568;-69
2023/07/12 21:03:33;;;;;;;6.73;6.03;;;24.30;44.30;;;;;;10522352;27;20226;-69
2023/07/12 21:08:39;;;;;;;6.70;5.57;;;24.20;44.40;;;;;;10520465;27;20306;-68
2023/07/12 21:13:42;;;;;;;8.80;6.13;;;24.10;45.00;;;;;;10518606;28;20326;-69
2023/07/12 21:18:46;;;;;;;6.23;5.63;;;24.00;44.50;;;;;;10529318;27;20236;-68
2023/07/12 21:23:54;;;;;;;8.17;4.50;;;23.80;44.70;;;;;;10525146;27;20223;-68
2023/07/12 21:28:57;;;;;;;4.53;4.00;;;23.80;45.30;;;;;;10523980;27;20725;-68
2023/07/12 21:34:01;;;;;;;3.93;3.63;;;23.60;45.00;;;;;;10519734;28;20595;-68
2023/07/12 21:39:05;;;;;;;3.40;3.10;;;23.40;45.10;;;;;;10517893;27;20311;-68
2023/07/12 21:44:09;;;;;;;3.47;2.87;;;23.40;45.50;;;;;;10523895;27;20227;-68
2023/07/12 21:49:12;;;;;;;3.27;2.97;;;23.20;45.00;;;;;;10520717;27;20224;-68
2023/07/12 21:54:17;;;;;;;3.70;3.03;;;23.20;45.10;;;;;;10522617;27;20238;-67
2023/07/12 21:59:20;;;;;;;3.17;2.93;;;23.10;45.50;;;;;;10529976;28;20224;-68
2023/07/12 22:04:23;;;;;;;3.47;3.17;;;23.00;45.10;;;;;;10532422;27;20228;-72
2023/07/12 22:09:28;;;;;;;3.30;3.10;;;23.00;45.20;;;;;;10529917;27;20356;-73
2023/07/12 22:14:32;;;;;;;3.40;3.10;;;22.90;45.70;;;;;;10532225;28;20911;-72
2023/07/12 22:19:35;;;;;;;2.83;2.60;;;22.90;45.50;;;;;;10526853;28;20743;-73
2023/07/12 22:24:42;;;;;;;4.83;3.20;;;23.00;45.30;;;;;;10530040;28;20236;-72
2023/07/12 22:29:45;;;;;;;3.17;2.80;;;23.00;46.00;;;;;;10531869;27;20238;-73
2023/07/12 22:34:48;;;;;;;3.20;2.90;;;22.90;45.20;;;;;;10530368;28;20243;-73
2023/07/12 22:39:53;;;;;;;2.83;2.63;;;22.80;45.10;;;;;;10528324;27;20292;-72
2023/07/12 22:44:56;;;;;;;3.80;3.00;;;22.70;46.00;;;;;;10528846;27;20254;-72
2023/07/12 22:50:00;;;;;;;3.03;2.83;;;22.60;45.50;;;;;;10534840;27;20314;-72
2023/07/12 22:55:06;;;;;;;3.20;2.90;;;22.50;45.80;;;;;;10528519;28;20228;-72
2023/07/12 23:00:12;;;;;;;2.80;2.60;;;22.40;46.70;;;;;;10535339;28;20242;-72
2023/07/12 23:05:17;;;;;;;3.43;3.00;;;22.30;46.70;;;;;;10524975;28;20799;-73
2023/07/12 23:10:24;;;;;;;3.47;2.63;;;22.20;46.40;;;;;;10523935;28;20312;-72
2023/07/12 23:15:27;;;;;;;2.93;2.60;;;22.10;47.40;;;;;;10527542;28;20273;-72
2023/07/12 23:20:30;;;;;;;2.80;2.60;;;22.10;46.60;;;;;;10530229;28;20230;-73
2023/07/12 23:25:35;;;;;;;3.33;2.70;;;22.10;46.90;;;;;;10532250;28;20314;-72
2023/07/12 23:30:38;;;;;;;3.10;2.80;;;22.10;47.60;;;;;;10526522;28;20322;-73
2023/07/12 23:35:44;;;;;;;2.67;2.47;;;22.00;47.10;;;;;;10527798;28;20334;-72
2023/07/12 23:40:49;;;;;;;3.20;2.30;;;22.00;47.20;;;;;;10526204;28;20246;-72
2023/07/12 23:45:52;;;;;;;2.73;2.53;;;22.00;47.90;;;;;;10532418;27;20228;-72
2023/07/12 23:50:55;;;;;;;3.13;2.40;;;22.00;47.40;;;;;;10526394;28;20238;-73
2023/07/12 23:56:00;;;;;;;2.90;2.70;;;22.00;47.60;;;;;;10524685;27;20331;-73
